createdAt,value
2023-01-15T00:00:53.049Z,10.18
2023-01-15T00:03:57.680Z,9.68
2023-01-15T00:07:00.349Z,10.07
2023-01-15T00:10:02.990Z,9.70
2023-01-15T00:13:05.763Z,10.07
2023-01-15T00:16:11.342Z,10.40
2023-01-15T00:19:14.692Z,9.70
2023-01-15T00:22:17.269Z,9.68
2023-01-15T00:25:38.561Z,9.47
2023-01-15T00:28:42.398Z,10.38
2023-01-15T00:31:53.140Z,9.80
2023-01-15T00:34:58.146Z,10.15
2023-01-15T00:38:00.838Z,9.70
2023-01-15T00:41:03.663Z,9.33
2023-01-15T00:44:06.224Z,9.73
2023-01-15T00:47:14.642Z,9.50
2023-01-15T00:50:19.107Z,9.75
2023-01-15T00:53:21.827Z,9.65
2023-01-15T00:56:24.481Z,9.57
2023-01-15T00:59:28.050Z,9.98
2023-01-15T01:02:32.196Z,9.15
2023-01-15T01:05:36.711Z,9.30
2023-01-15T01:08:39.636Z,9.45
2023-01-15T01:11:43.079Z,9.40
2023-01-15T01:14:46.196Z,9.40
2023-01-15T01:17:49.044Z,9.48
2023-01-15T01:20:55.104Z,9.30
2023-01-15T01:24:01.801Z,9.32
2023-01-15T01:27:04.508Z,9.20
2023-01-15T01:30:07.796Z,8.80
2023-01-15T01:33:11.225Z,9.70
2023-01-15T01:36:13.821Z,9.25
2023-01-15T01:39:19.256Z,9.27
2023-01-15T01:42:22.448Z,9.37
2023-01-15T01:45:34.157Z,9.10
2023-01-15T01:48:36.790Z,8.65
2023-01-15T01:51:43.802Z,9.60
2023-01-15T01:54:48.643Z,8.95
2023-01-15T01:57:53.992Z,8.80
2023-01-15T02:00:59.484Z,9.20
2023-01-15T02:04:06.610Z,9.05
2023-01-15T02:07:09.464Z,8.55
2023-01-15T02:10:16.480Z,8.60
2023-01-15T02:13:40.292Z,8.53
2023-01-15T02:16:49.137Z,9.02
2023-01-15T02:20:09.973Z,8.60
2023-01-15T02:23:16.661Z,8.48
2023-01-15T02:26:38.702Z,8.52
2023-01-15T02:30:04.090Z,8.33
2023-01-15T02:33:25.745Z,8.25
2023-01-15T02:36:31.530Z,8.30
2023-01-15T02:39:40.852Z,8.40
2023-01-15T02:42:47.767Z,8.57
2023-01-15T02:45:54.350Z,8.53
2023-01-15T02:48:58.819Z,8.13
2023-01-15T02:52:13.698Z,7.95
2023-01-15T02:55:23.364Z,8.20
2023-01-15T02:58:32.503Z,8.60
2023-01-15T03:01:45.431Z,7.80
2023-01-15T03:05:02.487Z,7.70
2023-01-15T03:08:08.578Z,8.60
2023-01-15T03:11:14.956Z,7.68
2023-01-15T03:14:40.537Z,8.52
2023-01-15T03:17:52.542Z,7.90
2023-01-15T03:20:59.695Z,8.15
2023-01-15T03:24:05.668Z,8.00
2023-01-15T03:27:08.424Z,7.50
2023-01-15T03:30:18.439Z,8.18
2023-01-15T03:33:22.505Z,7.80
2023-01-15T03:36:25.698Z,8.35
2023-01-15T03:39:30.060Z,8.07
2023-01-15T03:43:24.752Z,7.80
2023-01-15T03:46:46.679Z,7.93
2023-01-15T03:50:04.134Z,8.07
2023-01-15T03:53:26.848Z,7.20
2023-01-15T03:56:56.740Z,7.30
2023-01-15T04:00:08.654Z,7.82
2023-01-15T04:03:22.503Z,7.45
2023-01-15T04:06:29.659Z,7.67
2023-01-15T04:09:39.204Z,7.78
2023-01-15T04:12:45.215Z,7.68
2023-01-15T04:15:48.435Z,7.78
2023-01-15T04:18:53.165Z,7.90
2023-01-15T04:21:55.868Z,7.53
2023-01-15T04:24:58.583Z,6.78
2023-01-15T04:28:01.166Z,7.43
2023-01-15T04:31:04.824Z,7.10
2023-01-15T04:34:07.436Z,7.28
2023-01-15T04:37:10.088Z,7.03
2023-01-15T04:40:35.346Z,6.72
2023-01-15T04:43:56.923Z,6.28
2023-01-15T04:47:00.223Z,7.03
2023-01-15T04:50:02.864Z,7.18
2023-01-15T04:53:06.537Z,6.67
2023-01-15T04:56:09.896Z,7.03
2023-01-15T04:59:13.301Z,6.95
2023-01-15T05:02:16.212Z,6.80
2023-01-15T05:05:18.860Z,6.82
2023-01-15T05:08:21.547Z,6.50
2023-01-15T05:11:24.494Z,6.93
2023-01-15T05:14:27.510Z,6.68
2023-01-15T05:17:32.020Z,6.63
2023-01-15T05:20:38.166Z,6.60
2023-01-15T05:23:40.964Z,6.30
2023-01-15T05:26:44.076Z,6.30
2023-01-15T05:29:48.034Z,6.47
2023-01-15T05:32:50.907Z,6.22
2023-01-15T05:35:53.561Z,6.78
2023-01-15T05:38:59.813Z,6.13
2023-01-15T05:42:02.604Z,6.25
2023-01-15T05:45:05.541Z,6.10
2023-01-15T05:48:08.284Z,6.47
2023-01-15T05:51:11.162Z,6.15
2023-01-15T05:54:16.861Z,6.30
2023-01-15T05:57:19.620Z,6.13
2023-01-15T06:00:23.297Z,6.70
2023-01-15T06:03:27.273Z,6.18
2023-01-15T06:06:30.479Z,5.75
2023-01-15T06:09:33.426Z,5.90
2023-01-15T06:12:36.174Z,5.88
2023-01-15T06:15:39.107Z,6.25
2023-01-15T06:18:42.241Z,6.15
2023-01-15T06:21:44.905Z,5.95
2023-01-15T06:24:47.588Z,6.13
2023-01-15T06:27:50.238Z,6.43
2023-01-15T06:30:53.363Z,6.00
2023-01-15T06:33:56.379Z,5.65
2023-01-15T06:36:58.929Z,6.75
2023-01-15T06:40:02.168Z,6.20
2023-01-15T06:43:23.750Z,6.22
2023-01-15T06:46:45.283Z,6.13
2023-01-15T06:49:51.922Z,6.00
2023-01-15T06:52:54.563Z,6.57
2023-01-15T06:55:57.391Z,5.90
2023-01-15T06:59:00.036Z,6.38
2023-01-15T07:02:02.988Z,6.53
2023-01-15T07:05:05.968Z,6.57
2023-01-15T07:08:08.748Z,6.15
2023-01-15T07:11:15.402Z,5.37
2023-01-15T07:14:18.941Z,6.30
2023-01-15T07:17:21.652Z,6.43
2023-01-15T07:20:25.207Z,6.22
2023-01-15T07:23:30.030Z,6.07
2023-01-15T07:26:32.729Z,6.63
2023-01-15T07:29:35.284Z,6.47
2023-01-15T07:32:38.651Z,6.80
2023-01-15T07:35:41.859Z,5.80
2023-01-15T07:38:44.607Z,6.28
2023-01-15T07:42:05.609Z,5.90
2023-01-15T07:45:29.834Z,6.25
2023-01-15T07:48:51.507Z,6.75
2023-01-15T07:51:54.144Z,5.78
2023-01-15T07:54:56.864Z,6.45
2023-01-15T07:57:59.510Z,6.70
2023-01-15T08:01:02.429Z,6.40
2023-01-15T08:04:05.471Z,6.03
2023-01-15T08:07:08.620Z,6.60
2023-01-15T08:10:13.889Z,6.47
2023-01-15T08:13:36.375Z,6.03
2023-01-15T08:16:39.027Z,6.47
2023-01-15T08:19:41.773Z,6.40
2023-01-15T08:22:44.850Z,6.32
2023-01-15T08:25:47.406Z,6.10
2023-01-15T08:28:50.143Z,6.90
2023-01-15T08:31:52.877Z,6.15
2023-01-15T08:34:55.693Z,6.70
2023-01-15T08:37:58.267Z,6.80
2023-01-15T08:41:02.282Z,6.38
2023-01-15T08:44:05.451Z,6.67
2023-01-15T08:47:08.246Z,6.13
2023-01-15T08:50:13.048Z,6.57
2023-01-15T08:53:21.480Z,6.32
2023-01-15T08:56:24.112Z,6.47
2023-01-15T08:59:47.776Z,6.40
2023-01-15T09:03:10.299Z,6.20
2023-01-15T09:06:18.774Z,5.93
2023-01-15T09:09:21.361Z,6.25
2023-01-15T09:12:26.523Z,6.63
2023-01-15T09:15:30.800Z,6.77
2023-01-15T09:18:35.706Z,6.97
2023-01-15T09:21:39.232Z,6.97
2023-01-15T09:24:41.825Z,6.25
2023-01-15T09:27:44.449Z,6.32
2023-01-15T09:30:47.226Z,5.93
2023-01-15T09:33:49.869Z,6.13
2023-01-15T09:36:52.563Z,6.60
2023-01-15T09:39:55.239Z,6.25
2023-01-15T09:43:08.242Z,6.93
2023-01-15T09:46:16.342Z,6.10
2023-01-15T09:49:43.552Z,5.50
2023-01-15T09:53:01.019Z,6.00
2023-01-15T09:56:05.292Z,6.28
2023-01-15T09:59:35.185Z,6.38
2023-01-15T10:02:46.253Z,6.03
2023-01-15T10:05:56.207Z,6.40
2023-01-15T10:09:19.682Z,6.35
2023-01-15T10:12:43.445Z,6.35
2023-01-15T10:15:48.180Z,6.10
2023-01-15T10:18:51.702Z,6.37
2023-01-15T10:22:06.420Z,6.40
2023-01-15T10:25:22.254Z,6.45
2023-01-15T10:28:59.971Z,6.45
2023-01-15T10:32:14.323Z,6.05
2023-01-15T10:35:51.015Z,5.90
2023-01-15T10:39:21.302Z,6.13
2023-01-15T10:42:40.823Z,6.40
2023-01-15T10:45:51.993Z,5.97
2023-01-15T10:48:59.641Z,6.20
2023-01-15T10:52:31.437Z,5.80
2023-01-15T10:55:39.105Z,6.32
2023-01-15T10:58:57.052Z,6.10
2023-01-15T11:02:16.919Z,5.60
2023-01-15T11:05:21.517Z,6.13
2023-01-15T11:12:19.275Z,5.53
2023-01-15T11:15:43.507Z,6.25
2023-01-15T11:19:05.508Z,5.82
2023-01-15T11:22:20.248Z,5.97
2023-01-15T11:25:31.360Z,6.30
2023-01-15T11:28:46.598Z,6.47
2023-01-15T11:31:49.260Z,5.88
2023-01-15T11:34:57.141Z,5.85
2023-01-15T11:38:18.059Z,6.38
2023-01-15T11:41:25.257Z,6.00
2023-01-15T11:44:46.714Z,6.05
2023-01-15T11:48:12.196Z,6.45
2023-01-15T11:51:16.568Z,6.53
2023-01-15T11:54:19.157Z,5.78
2023-01-15T11:57:33.669Z,5.50
2023-01-15T12:00:46.068Z,5.78
2023-01-15T12:03:48.975Z,5.85
2023-01-15T12:06:51.815Z,5.97
2023-01-15T12:10:40.433Z,5.88
2023-01-15T12:14:13.155Z,5.47
2023-01-15T12:17:20.959Z,5.55
2023-01-15T12:20:29.225Z,5.40
2023-01-15T12:24:02.863Z,5.45
2023-01-15T12:27:22.931Z,5.45
2023-01-15T12:30:41.383Z,5.63
2023-01-15T12:33:49.785Z,5.57
2023-01-15T12:36:59.319Z,5.63
2023-01-15T12:40:30.733Z,5.40
2023-01-15T12:43:52.407Z,5.95
2023-01-15T12:46:55.286Z,5.50
2023-01-15T12:50:06.752Z,5.43
2023-01-15T12:53:24.370Z,5.40
2023-01-15T12:56:56.191Z,5.50
2023-01-15T13:00:05.095Z,5.25
2023-01-15T13:03:20.052Z,5.40
2023-01-15T13:06:27.148Z,5.45
2023-01-15T13:09:43.727Z,5.65
2023-01-15T13:12:46.751Z,5.43
2023-01-15T13:16:02.690Z,5.75
2023-01-15T13:19:28.827Z,5.97
2023-01-15T13:22:37.838Z,5.30
2023-01-15T13:25:58.885Z,5.55
2023-01-15T13:29:25.810Z,5.40
2023-01-15T13:32:33.741Z,5.47
2023-01-15T13:35:43.805Z,5.50
2023-01-15T13:38:52.203Z,5.38
2023-01-15T13:42:14.164Z,5.53
2023-01-15T13:45:16.902Z,5.60
2023-01-15T13:48:24.864Z,5.60
2023-01-15T13:51:43.546Z,5.30
2023-01-15T13:54:46.849Z,5.60
2023-01-15T13:57:50.637Z,5.45
2023-01-15T14:01:20.815Z,5.70
2023-01-15T14:04:36.551Z,5.30
2023-01-15T14:07:39.588Z,5.60
2023-01-15T14:10:42.488Z,5.50
2023-01-15T14:14:20.795Z,5.82
2023-01-15T14:18:05.366Z,5.65
2023-01-15T14:21:16.981Z,5.68
2023-01-15T14:25:03.566Z,5.63
2023-01-15T14:28:45.264Z,5.50
2023-01-15T14:32:00.034Z,5.40
2023-01-15T14:35:03.755Z,5.55
2023-01-15T14:38:13.796Z,5.20
2023-01-15T14:41:25.070Z,5.40
2023-01-15T14:44:33.695Z,5.45
2023-01-15T14:47:51.636Z,5.60
2023-01-15T14:51:06.829Z,5.30
2023-01-15T14:54:13.440Z,5.47
2023-01-15T14:57:17.256Z,5.53
2023-01-15T15:00:23.333Z,5.60
2023-01-15T15:03:35.732Z,6.15
2023-01-15T15:06:47.460Z,5.55
2023-01-15T15:10:05.435Z,5.90
2023-01-15T15:13:28.574Z,5.70
2023-01-15T15:16:32.643Z,5.75
2023-01-15T15:19:41.286Z,5.60
2023-01-15T15:22:48.281Z,5.43
2023-01-15T15:26:17.640Z,5.80
2023-01-15T15:29:22.153Z,5.27
2023-01-15T15:32:25.703Z,5.68
2023-01-15T15:35:30.811Z,5.70
2023-01-15T15:38:34.058Z,5.93
2023-01-15T15:41:56.265Z,6.05
2023-01-15T15:45:19.300Z,5.40
2023-01-15T15:48:43.242Z,5.53
2023-01-15T15:51:51.714Z,5.40
2023-01-15T15:54:59.967Z,5.90
2023-01-15T15:58:04.498Z,5.75
2023-01-15T16:01:13.141Z,5.50
2023-01-15T16:04:19.511Z,5.65
2023-01-15T16:07:29.733Z,5.68
2023-01-15T16:10:34.379Z,5.82
2023-01-15T16:13:57.665Z,5.78
2023-01-15T16:17:01.360Z,5.87
2023-01-15T16:20:05.224Z,5.80
2023-01-15T16:23:42.845Z,5.85
2023-01-15T16:26:55.641Z,5.88
2023-01-15T16:30:00.195Z,5.47
2023-01-15T16:33:07.950Z,6.27
2023-01-15T16:36:11.638Z,6.07
2023-01-15T16:39:24.489Z,6.22
2023-01-15T16:42:27.833Z,5.95
2023-01-15T16:45:31.658Z,6.63
2023-01-15T16:48:46.668Z,6.00
2023-01-15T16:51:52.365Z,5.93
2023-01-15T16:54:58.365Z,6.07
2023-01-15T16:58:15.639Z,6.40
2023-01-15T17:01:37.830Z,6.00
2023-01-15T17:04:44.776Z,6.17
2023-01-15T17:07:50.832Z,6.28
2023-01-15T17:11:02.451Z,5.80
2023-01-15T17:14:22.829Z,5.93
2023-01-15T17:17:29.648Z,6.20
2023-01-15T17:20:36.581Z,5.90
2023-01-15T17:23:43.310Z,6.43
2023-01-15T17:26:48.682Z,5.90
2023-01-15T17:29:54.683Z,6.03
2023-01-15T17:33:01.621Z,5.82
2023-01-15T17:36:05.681Z,5.87
2023-01-15T17:39:13.624Z,6.10
2023-01-15T17:42:20.029Z,6.70
2023-01-15T17:45:29.351Z,5.90
2023-01-15T17:48:34.075Z,5.93
2023-01-15T17:51:39.392Z,5.80
2023-01-15T17:55:01.887Z,6.10
2023-01-15T17:58:27.970Z,6.65
2023-01-15T18:01:55.794Z,6.40
2023-01-15T18:05:19.207Z,6.60
2023-01-15T18:08:23.889Z,6.07
2023-01-15T18:11:32.403Z,6.57
2023-01-15T18:14:36.585Z,6.07
2023-01-15T18:17:40.719Z,6.57
2023-01-15T18:20:44.531Z,6.57
2023-01-15T18:23:51.386Z,6.90
2023-01-15T18:26:56.393Z,6.25
2023-01-15T18:30:00.307Z,6.18
2023-01-15T18:33:04.999Z,6.80
2023-01-15T18:36:12.471Z,6.63
2023-01-15T18:39:18.205Z,6.67
2023-01-15T18:42:41.085Z,6.53
2023-01-15T18:46:08.256Z,6.28
2023-01-15T18:49:12.582Z,6.50
2023-01-15T18:52:35.363Z,6.60
2023-01-15T18:55:40.353Z,6.47
2023-01-15T18:58:44.849Z,6.75
2023-01-15T19:01:48.824Z,6.25
2023-01-15T19:04:52.874Z,6.57
2023-01-15T19:07:57.401Z,6.85
2023-01-15T19:11:02.819Z,6.43
2023-01-15T19:14:27.054Z,6.45
2023-01-15T19:17:49.530Z,6.47
2023-01-15T19:20:55.529Z,6.07
2023-01-15T19:23:59.180Z,6.45
2023-01-15T19:27:07.731Z,6.40
2023-01-15T19:30:14.721Z,6.65
2023-01-15T19:33:18.303Z,6.53
2023-01-15T19:36:22.844Z,6.53
2023-01-15T19:39:27.965Z,6.70
2023-01-15T19:42:57.369Z,6.40
2023-01-15T19:46:20.527Z,6.00
2023-01-15T19:49:43.658Z,6.70
2023-01-15T19:52:52.883Z,6.88
2023-01-15T19:55:56.471Z,6.75
2023-01-15T19:59:03.631Z,6.13
2023-01-15T20:02:08.228Z,6.22
2023-01-15T20:05:14.595Z,6.43
2023-01-15T20:08:19.978Z,6.57
2023-01-15T20:11:24.480Z,6.65
2023-01-15T20:14:30.271Z,6.40
2023-01-15T20:17:34.368Z,7.07
2023-01-15T20:20:39.588Z,6.38
2023-01-15T20:23:44.787Z,6.22
2023-01-15T20:26:49.070Z,6.13
2023-01-15T20:30:00.287Z,6.67
2023-01-15T20:33:04.818Z,6.30
2023-01-15T20:36:09.915Z,6.22
2023-01-15T20:39:16.738Z,6.65
2023-01-15T20:42:38.573Z,6.20
2023-01-15T20:45:43.054Z,5.90
2023-01-15T20:49:06.730Z,6.68
2023-01-15T20:52:10.760Z,6.35
2023-01-15T20:55:16.428Z,6.43
2023-01-15T20:58:19.709Z,6.10
2023-01-15T21:01:25.212Z,6.33
2023-01-15T21:04:30.139Z,5.95
2023-01-15T21:07:34.894Z,5.88
2023-01-15T21:10:40.629Z,6.35
2023-01-15T21:13:47.345Z,6.35
2023-01-15T21:16:53.020Z,6.37
2023-01-15T21:19:56.992Z,6.88
2023-01-15T21:23:00.049Z,6.18
2023-01-15T21:26:04.769Z,5.75
2023-01-15T21:29:07.691Z,6.05
2023-01-15T21:32:10.797Z,6.30
2023-01-15T21:35:13.834Z,6.18
2023-01-15T21:38:16.684Z,6.38
2023-01-15T21:41:20.303Z,6.25
2023-01-15T21:44:33.702Z,6.50
2023-01-15T21:47:41.566Z,6.00
2023-01-15T21:50:44.358Z,6.25
2023-01-15T21:53:47.133Z,5.93
2023-01-15T21:56:49.773Z,6.63
2023-01-15T21:59:52.339Z,6.40
2023-01-15T22:02:55.971Z,6.83
2023-01-15T22:06:05.030Z,6.32
2023-01-15T22:09:07.890Z,6.25
2023-01-15T22:12:11.800Z,6.03
2023-01-15T22:15:16.275Z,6.18
2023-01-15T22:18:19.022Z,5.93
2023-01-15T22:21:21.838Z,6.25
2023-01-15T22:24:29.752Z,6.75
2023-01-15T22:27:34.600Z,6.05
2023-01-15T22:30:38.683Z,5.85
2023-01-15T22:33:41.320Z,5.67
2023-01-15T22:36:43.987Z,6.15
2023-01-15T22:39:47.256Z,5.88
2023-01-15T22:42:50.088Z,6.28
2023-01-15T22:45:52.706Z,6.25
2023-01-15T22:48:55.379Z,6.30
2023-01-15T22:51:58.161Z,6.30
2023-01-15T22:55:01.033Z,6.55
2023-01-15T22:58:03.883Z,6.22
2023-01-15T23:01:06.634Z,6.13
2023-01-15T23:04:21.067Z,5.77
2023-01-15T23:07:24.334Z,5.93
2023-01-15T23:10:27.313Z,5.90
2023-01-15T23:13:33.511Z,5.97
2023-01-15T23:16:37.287Z,5.90
2023-01-15T23:19:39.982Z,5.57
2023-01-15T23:22:42.841Z,5.65
2023-01-15T23:25:45.447Z,5.55
2023-01-15T23:28:48.339Z,5.93
2023-01-15T23:31:50.965Z,5.70
2023-01-15T23:34:53.577Z,5.60
2023-01-15T23:37:56.170Z,6.05
2023-01-15T23:40:58.893Z,5.97
2023-01-15T23:44:20.471Z,6.25
2023-01-15T23:47:23.130Z,6.60
2023-01-15T23:50:25.667Z,5.97
2023-01-15T23:53:28.600Z,5.82
2023-01-15T23:56:32.547Z,5.97
2023-01-15T23:59:35.571Z,5.35
